Time,TemperatureF,DewpointF,PressureIn,WindDirection,WindDirectionDegrees,WindSpeedMPH,WindSpeedGustMPH,Humidity,HourlyPrecipIn,Conditions,Clouds,dailyrainin,SolarRadiationWatts/m^2,SoftwareType,DateUTC
2013-09-27 01:00:00,52.0,48.0,-100.00,ENE,67,1.0,-999.0,85,-99.99,,,-99.99,0.000000,,2013-09-27 05:00:00,
2013-09-27 01:43:00,52.0,48.0,-100.00,ENE,67,1.0,-999.0,85,-99.99,,,-99.99,0.000000,,2013-09-27 05:43:00,
2013-09-27 01:52:00,52.0,48.0,-100.00,ENE,67,1.0,-999.0,85,-99.99,,,-99.99,0.000000,,2013-09-27 05:52:00,
2013-09-27 02:00:00,50.0,46.0,-100.00,ENE,67,0.0,-999.0,88,-99.99,,,-99.99,0.000000,,2013-09-27 06:00:00,
2013-09-27 02:43:00,50.0,46.0,-100.00,ENE,67,0.0,-999.0,88,-99.99,,,-99.99,0.000000,,2013-09-27 06:43:00,
2013-09-27 02:52:00,50.0,46.0,-100.00,ENE,67,0.0,-999.0,88,-99.99,,,-99.99,0.000000,,2013-09-27 06:52:00,
2013-09-27 03:00:00,48.0,46.0,-100.00,ENE,67,0.0,-999.0,90,-99.99,,,-99.99,0.000000,,2013-09-27 07:00:00,
2013-09-27 03:44:00,48.0,46.0,-100.00,ENE,67,0.0,-999.0,90,-99.99,,,-99.99,0.000000,,2013-09-27 07:44:00,
2013-09-27 03:53:00,48.0,46.0,-100.00,ENE,67,0.0,-999.0,90,-99.99,,,-99.99,0.000000,,2013-09-27 07:53:00,
2013-09-27 04:00:00,46.0,44.0,-100.00,ENE,67,0.0,-999.0,92,-99.99,,,-99.99,0.000000,,2013-09-27 08:00:00,
2013-09-27 04:42:00,46.0,44.0,-100.00,ENE,67,0.0,-999.0,92,-99.99,,,-99.99,0.000000,,2013-09-27 08:42:00,
2013-09-27 04:52:00,46.0,44.0,-100.00,ENE,67,0.0,-999.0,92,-99.99,,,-99.99,0.000000,,2013-09-27 08:52:00,
2013-09-27 05:00:00,45.0,43.0,-100.00,ENE,67,0.0,-999.0,94,-99.99,,,-99.99,0.000000,,2013-09-27 09:00:00,
2013-09-27 05:44:00,45.0,43.0,-100.00,ENE,67,0.0,-999.0,94,-99.99,,,-99.99,0.000000,,2013-09-27 09:44:00,
2013-09-27 05:54:00,45.0,43.0,-100.00,ENE,67,0.0,-999.0,94,-99.99,,,-99.99,0.000000,,2013-09-27 09:54:00,
2013-09-27 06:00:00,44.0,43.0,-100.00,ENE,67,0.0,-999.0,95,-99.99,,,-99.99,0.000000,,2013-09-27 10:00:00,
2013-09-27 06:42:00,44.0,43.0,-100.00,ENE,67,0.0,-999.0,95,-99.99,,,-99.99,0.000000,,2013-09-27 10:42:00,
2013-09-27 06:53:00,44.0,43.0,-100.00,ENE,67,0.0,-999.0,95,-99.99,,,-99.99,0.000000,,2013-09-27 10:53:00,
2013-09-27 08:00:00,44.0,43.0,-100.00,East,90,0.0,-999.0,96,-99.99,,,-99.99,4.640000,,2013-09-27 12:00:00,
2013-09-27 08:42:00,44.0,43.0,-100.00,East,90,0.0,-999.0,96,-99.99,,,-99.99,4.640000,,2013-09-27 12:42:00,
2013-09-27 08:52:00,44.0,43.0,-100.00,East,90,0.0,-999.0,96,-99.99,,,-99.99,4.640000,,2013-09-27 12:52:00,
2013-09-27 09:00:00,49.0,47.0,-100.00,East,90,1.0,-999.0,96,-99.99,,,-99.99,126.440002,,2013-09-27 13:00:00,
2013-09-27 09:42:00,49.0,47.0,-100.00,East,90,1.0,-999.0,96,-99.99,,,-99.99,126.440002,,2013-09-27 13:42:00,
2013-09-27 09:53:00,49.0,47.0,-100.00,East,90,1.0,-999.0,96,-99.99,,,-99.99,126.440002,,2013-09-27 13:53:00,
2013-09-27 10:00:00,57.0,52.0,-100.00,ESE,112,1.0,-999.0,84,-99.99,,,-99.99,292.320007,,2013-09-27 14:00:00,
2013-09-27 10:42:00,57.0,52.0,-100.00,ESE,112,1.0,-999.0,84,-99.99,,,-99.99,292.320007,,2013-09-27 14:42:00,
2013-09-27 10:52:00,57.0,52.0,-100.00,ESE,112,1.0,-999.0,84,-99.99,,,-99.99,292.320007,,2013-09-27 14:52:00,
2013-09-27 11:00:00,64.0,54.0,-100.00,ESE,112,4.0,-999.0,69,-99.99,,,-99.99,444.279999,,2013-09-27 15:00:00,
2013-09-27 11:44:00,64.0,54.0,-100.00,ESE,112,4.0,-999.0,69,-99.99,,,-99.99,444.279999,,2013-09-27 15:44:00,
2013-09-27 11:54:00,64.0,54.0,-100.00,ESE,112,4.0,-999.0,69,-99.99,,,-99.99,444.279999,,2013-09-27 15:54:00,
2013-09-27 13:00:00,73.0,51.0,-100.00,ESE,112,6.0,-999.0,45,-99.99,,,-99.99,655.400024,,2013-09-27 17:00:00,
2013-09-27 13:43:00,73.0,51.0,-100.00,ESE,112,6.0,-999.0,45,-99.99,,,-99.99,655.400024,,2013-09-27 17:43:00,
2013-09-27 13:52:00,73.0,51.0,-100.00,ESE,112,6.0,-999.0,45,-99.99,,,-99.99,655.400024,,2013-09-27 17:52:00,
2013-09-27 15:00:00,77.0,50.0,-100.00,ESE,112,6.0,-999.0,39,-99.99,,,-99.99,642.640015,,2013-09-27 19:00:00,
2013-09-27 15:43:00,77.0,50.0,-100.00,ESE,112,6.0,-999.0,39,-99.99,,,-99.99,642.640015,,2013-09-27 19:43:00,
2013-09-27 15:53:00,77.0,50.0,-100.00,ESE,112,6.0,-999.0,39,-99.99,,,-99.99,642.640015,,2013-09-27 19:53:00,
2013-09-27 17:00:00,77.0,49.0,-100.00,SE,135,7.0,-999.0,36,-99.99,,,-99.99,417.600006,,2013-09-27 21:00:00,
2013-09-27 17:44:00,77.0,49.0,-100.00,SE,135,7.0,-999.0,36,-99.99,,,-99.99,417.600006,,2013-09-27 21:44:00,
2013-09-27 17:54:00,77.0,49.0,-100.00,SE,135,7.0,-999.0,36,-99.99,,,-99.99,417.600006,,2013-09-27 21:54:00,
2013-09-27 18:00:00,77.0,50.0,-100.00,ESE,112,7.0,-999.0,37,-99.99,,,-99.99,305.079987,,2013-09-27 22:00:00,
2013-09-27 18:43:00,77.0,50.0,-100.00,ESE,112,7.0,-999.0,37,-99.99,,,-99.99,305.079987,,2013-09-27 22:43:00,
2013-09-27 18:54:00,77.0,50.0,-100.00,ESE,112,7.0,-999.0,37,-99.99,,,-99.99,305.079987,,2013-09-27 22:54:00,
2013-09-27 19:00:00,76.0,50.0,-100.00,ESE,112,6.0,-999.0,40,-99.99,,,-99.99,139.199997,,2013-09-27 23:00:00,
2013-09-27 19:43:00,76.0,50.0,-100.00,ESE,112,6.0,-999.0,40,-99.99,,,-99.99,139.199997,,2013-09-27 23:43:00,
2013-09-27 19:53:00,76.0,50.0,-100.00,ESE,112,6.0,-999.0,40,-99.99,,,-99.99,139.199997,,2013-09-27 23:53:00,
2013-09-27 20:00:00,71.0,50.0,-100.00,ESE,112,5.0,-999.0,47,-99.99,,,-99.99,15.080000,,2013-09-28 00:00:00,
2013-09-27 20:42:00,71.0,50.0,-100.00,ESE,112,5.0,-999.0,47,-99.99,,,-99.99,15.080000,,2013-09-28 00:42:00,
2013-09-27 20:52:00,71.0,50.0,-100.00,ESE,112,5.0,-999.0,47,-99.99,,,-99.99,15.080000,,2013-09-28 00:52:00,
2013-09-27 21:00:00,67.0,50.0,-100.00,ESE,112,3.0,-999.0,56,-99.99,,,-99.99,0.000000,,2013-09-28 01:00:00,
2013-09-27 21:42:00,67.0,50.0,-100.00,ESE,112,3.0,-999.0,56,-99.99,,,-99.99,0.000000,,2013-09-28 01:42:00,
2013-09-27 21:52:00,67.0,50.0,-100.00,ESE,112,3.0,-999.0,56,-99.99,,,-99.99,0.000000,,2013-09-28 01:52:00,
2013-09-27 23:00:00,62.0,53.0,-100.00,ESE,112,5.0,-999.0,71,-99.99,,,-99.99,0.000000,,2013-09-28 03:00:00,
2013-09-27 23:45:00,62.0,53.0,-100.00,ESE,112,5.0,-999.0,71,-99.99,,,-99.99,0.000000,,2013-09-28 03:45:00,
2013-09-27 23:55:00,62.0,53.0,-100.00,ESE,112,5.0,-999.0,71,-99.99,,,-99.99,0.000000,,2013-09-28 03:55:00,